Ana Sayfa
METAR-TAF:

METAR-TAF

Havaalanları :

Saginaw County H.W. Browne Airport

Saginaw, Michigan, Amerika Birleşik Devletleri

Enlem: 43-26-00N, Boylam: 083-51-45W, yükseklik: 183 m

Güncel hava durumu gözlemi

Rapor saat 06:56 UTC de 19 dakika önce yapıldı.
Rüzgar batı/kuzeybatıdan 5 kt
Sıcaklık 0°C
Nem 86%
Basınç 1015 hPa
Görüş mesafesi: 16.1 km
2900 ft yükseklikte çok bulutlu

METAR: KHYX 280656Z AUTO 29005KT 10SM OVC029 00/M02 A2997 RMK AO2

Saat: 02:15 (07:15 UTC)


TAF: eksik

4.000'den fazla havaalanı için hava durumu gözlemleri ve tahminleri (METAR ve TAF raporları).

Kullanılabilir istasyonlar harita üzerinde sarı ve kırmızı noktalarla gösterilir.

İstasyonun adını görmek için fareyi noktanın üzerinde gezdirin.

Sonrasında hava gözlem ve tahminlerini görmek için tıklayın.

Haritayı değiştirmek için: yaklaştırmak için siyah artı işaretli yeşil düğmeye ve uzaklaştırmak için de eksi işaretli düğmeye hızla tıklayın; bitişik haritalar için yeşil okları kullanın.


METAR-TAF: